sensor_id;sensor_type;location;lat;lon;timestamp;P1;durP1;ratioP1;P2;durP2;ratioP2
32216;SDS011;67098;51.140;4.088;2023-04-03T00:01:11;15.98;;;9.48;;
32216;SDS011;67098;51.140;4.088;2023-04-03T00:03:37;15.63;;;8.90;;
32216;SDS011;67098;51.140;4.088;2023-04-03T00:06:03;18.20;;;9.85;;
32216;SDS011;67098;51.140;4.088;2023-04-03T00:08:31;20.98;;;9.43;;
32216;SDS011;67098;51.140;4.088;2023-04-03T00:10:58;13.30;;;8.77;;
32216;SDS011;67098;51.140;4.088;2023-04-03T00:13:23;15.63;;;8.93;;
32216;SDS011;67098;51.140;4.088;2023-04-03T00:15:50;17.70;;;9.25;;
32216;SDS011;67098;51.140;4.088;2023-04-03T00:18:17;16.55;;;8.93;;
32216;SDS011;67098;51.140;4.088;2023-04-03T00:20:43;16.60;;;9.45;;
32216;SDS011;67098;51.140;4.088;2023-04-03T00:23:09;15.93;;;9.00;;
32216;SDS011;67098;51.140;4.088;2023-04-03T00:25:34;16.70;;;9.23;;
32216;SDS011;67098;51.140;4.088;2023-04-03T00:28:01;16.63;;;9.05;;
32216;SDS011;67098;51.140;4.088;2023-04-03T00:30:27;15.10;;;9.10;;
32216;SDS011;67098;51.140;4.088;2023-04-03T00:32:53;14.60;;;9.00;;
32216;SDS011;67098;51.140;4.088;2023-04-03T00:35:20;20.38;;;9.70;;
32216;SDS011;67098;51.140;4.088;2023-04-03T00:37:47;18.70;;;10.30;;
32216;SDS011;67098;51.140;4.088;2023-04-03T00:40:14;18.95;;;10.10;;
32216;SDS011;67098;51.140;4.088;2023-04-03T00:42:41;16.77;;;9.38;;
32216;SDS011;67098;51.140;4.088;2023-04-03T00:47:36;17.55;;;9.68;;
32216;SDS011;67098;51.140;4.088;2023-04-03T00:50:04;17.00;;;9.27;;
32216;SDS011;67098;51.140;4.088;2023-04-03T00:52:30;14.65;;;8.55;;
32216;SDS011;67098;51.140;4.088;2023-04-03T00:54:57;15.93;;;8.65;;
32216;SDS011;67098;51.140;4.088;2023-04-03T00:57:26;17.10;;;7.95;;
32216;SDS011;67098;51.140;4.088;2023-04-03T00:59:55;13.57;;;8.10;;
32216;SDS011;67098;51.140;4.088;2023-04-03T01:02:26;16.42;;;8.07;;
32216;SDS011;67098;51.140;4.088;2023-04-03T01:04:53;15.25;;;8.82;;
32216;SDS011;67098;51.140;4.088;2023-04-03T01:07:22;13.25;;;8.35;;
32216;SDS011;67098;51.140;4.088;2023-04-03T01:09:52;18.63;;;8.18;;
32216;SDS011;67098;51.140;4.088;2023-04-03T01:12:24;11.50;;;7.13;;
32216;SDS011;67098;51.140;4.088;2023-04-03T01:14:56;13.25;;;7.20;;
32216;SDS011;67098;51.140;4.088;2023-04-03T01:17:43;10.35;;;7.22;;
32216;SDS011;67098;51.140;4.088;2023-04-03T01:25:28;10.93;;;7.18;;
32216;SDS011;67098;51.140;4.088;2023-04-03T01:27:54;11.40;;;8.40;;
32216;SDS011;67098;51.140;4.088;2023-04-03T01:30:20;11.77;;;6.53;;
32216;SDS011;67098;51.140;4.088;2023-04-03T01:32:49;11.73;;;6.40;;
32216;SDS011;67098;51.140;4.088;2023-04-03T01:35:15;11.13;;;6.63;;
32216;SDS011;67098;51.140;4.088;2023-04-03T01:37:41;11.23;;;7.28;;
32216;SDS011;67098;51.140;4.088;2023-04-03T01:40:06;13.07;;;7.75;;
32216;SDS011;67098;51.140;4.088;2023-04-03T01:42:33;12.68;;;7.47;;
32216;SDS011;67098;51.140;4.088;2023-04-03T01:44:59;12.15;;;6.45;;
32216;SDS011;67098;51.140;4.088;2023-04-03T01:47:24;9.45;;;6.55;;
32216;SDS011;67098;51.140;4.088;2023-04-03T01:49:50;12.80;;;6.88;;
32216;SDS011;67098;51.140;4.088;2023-04-03T01:52:16;12.00;;;7.65;;
32216;SDS011;67098;51.140;4.088;2023-04-03T01:54:41;13.13;;;6.90;;
32216;SDS011;67098;51.140;4.088;2023-04-03T01:57:07;10.05;;;6.10;;
32216;SDS011;67098;51.140;4.088;2023-04-03T01:59:32;8.95;;;6.43;;
32216;SDS011;67098;51.140;4.088;2023-04-03T02:01:58;11.27;;;6.35;;
32216;SDS011;67098;51.140;4.088;2023-04-03T02:04:24;10.52;;;6.43;;
32216;SDS011;67098;51.140;4.088;2023-04-03T02:06:49;10.15;;;6.47;;
32216;SDS011;67098;51.140;4.088;2023-04-03T02:09:15;9.32;;;5.32;;
32216;SDS011;67098;51.140;4.088;2023-04-03T02:11:40;13.20;;;7.07;;
32216;SDS011;67098;51.140;4.088;2023-04-03T02:14:06;10.10;;;6.47;;
32216;SDS011;67098;51.140;4.088;2023-04-03T02:16:32;7.97;;;5.72;;
32216;SDS011;67098;51.140;4.088;2023-04-03T02:18:57;11.27;;;6.72;;
32216;SDS011;67098;51.140;4.088;2023-04-03T02:21:23;12.32;;;6.90;;
32216;SDS011;67098;51.140;4.088;2023-04-03T02:23:49;11.05;;;6.65;;
32216;SDS011;67098;51.140;4.088;2023-04-03T02:26:15;11.73;;;6.43;;
32216;SDS011;67098;51.140;4.088;2023-04-03T02:28:41;11.40;;;6.50;;
32216;SDS011;67098;51.140;4.088;2023-04-03T02:31:08;10.93;;;6.43;;
32216;SDS011;67098;51.140;4.088;2023-04-03T02:33:35;10.77;;;6.18;;
32216;SDS011;67098;51.140;4.088;2023-04-03T02:36:02;10.48;;;6.45;;
32216;SDS011;67098;51.140;4.088;2023-04-03T02:38:31;14.60;;;6.45;;
32216;SDS011;67098;51.140;4.088;2023-04-03T02:41:02;8.23;;;5.53;;
32216;SDS011;67098;51.140;4.088;2023-04-03T02:45:54;9.85;;;6.25;;
32216;SDS011;67098;51.140;4.088;2023-04-03T02:48:20;11.75;;;6.43;;
32216;SDS011;67098;51.140;4.088;2023-04-03T02:50:46;14.18;;;6.53;;
32216;SDS011;67098;51.140;4.088;2023-04-03T02:53:11;9.43;;;5.65;;
32216;SDS011;67098;51.140;4.088;2023-04-03T02:55:37;10.50;;;6.68;;
32216;SDS011;67098;51.140;4.088;2023-04-03T02:58:03;12.18;;;6.50;;
32216;SDS011;67098;51.140;4.088;2023-04-03T03:00:28;9.18;;;5.32;;
32216;SDS011;67098;51.140;4.088;2023-04-03T03:02:54;8.60;;;5.97;;
32216;SDS011;67098;51.140;4.088;2023-04-03T03:05:20;10.65;;;5.90;;
32216;SDS011;67098;51.140;4.088;2023-04-03T03:07:46;12.10;;;6.57;;
32216;SDS011;67098;51.140;4.088;2023-04-03T03:10:12;11.10;;;6.25;;
32216;SDS011;67098;51.140;4.088;2023-04-03T03:12:38;15.00;;;6.57;;
32216;SDS011;67098;51.140;4.088;2023-04-03T03:15:03;8.68;;;5.80;;
32216;SDS011;67098;51.140;4.088;2023-04-03T03:17:29;10.57;;;6.05;;
32216;SDS011;67098;51.140;4.088;2023-04-03T03:19:55;13.95;;;6.38;;
32216;SDS011;67098;51.140;4.088;2023-04-03T03:22:21;10.63;;;6.30;;
32216;SDS011;67098;51.140;4.088;2023-04-03T03:24:46;8.15;;;5.50;;
32216;SDS011;67098;51.140;4.088;2023-04-03T03:27:12;8.93;;;5.90;;
32216;SDS011;67098;51.140;4.088;2023-04-03T03:29:38;11.25;;;6.30;;
32216;SDS011;67098;51.140;4.088;2023-04-03T03:32:03;14.32;;;6.32;;
32216;SDS011;67098;51.140;4.088;2023-04-03T03:34:29;9.15;;;6.35;;
32216;SDS011;67098;51.140;4.088;2023-04-03T03:36:55;12.95;;;6.10;;
32216;SDS011;67098;51.140;4.088;2023-04-03T03:39:20;16.65;;;6.53;;
32216;SDS011;67098;51.140;4.088;2023-04-03T03:41:46;8.15;;;5.85;;
32216;SDS011;67098;51.140;4.088;2023-04-03T03:44:12;13.00;;;6.70;;
32216;SDS011;67098;51.140;4.088;2023-04-03T03:46:38;11.85;;;6.60;;
32216;SDS011;67098;51.140;4.088;2023-04-03T03:49:03;8.63;;;5.78;;
32216;SDS011;67098;51.140;4.088;2023-04-03T03:51:29;9.20;;;5.90;;
32216;SDS011;67098;51.140;4.088;2023-04-03T03:53:55;10.52;;;6.28;;
32216;SDS011;67098;51.140;4.088;2023-04-03T03:56:20;8.85;;;6.20;;
32216;SDS011;67098;51.140;4.088;2023-04-03T03:58:46;9.05;;;5.78;;
32216;SDS011;67098;51.140;4.088;2023-04-03T04:01:11;9.88;;;6.03;;
32216;SDS011;67098;51.140;4.088;2023-04-03T04:03:37;9.77;;;6.53;;
32216;SDS011;67098;51.140;4.088;2023-04-03T04:06:03;10.60;;;7.13;;
32216;SDS011;67098;51.140;4.088;2023-04-03T04:08:29;12.18;;;6.13;;
32216;SDS011;67098;51.140;4.088;2023-04-03T04:10:55;8.48;;;6.07;;
32216;SDS011;67098;51.140;4.088;2023-04-03T04:13:20;10.82;;;6.40;;
32216;SDS011;67098;51.140;4.088;2023-04-03T04:15:46;9.50;;;6.20;;
32216;SDS011;67098;51.140;4.088;2023-04-03T04:18:11;9.50;;;6.43;;
32216;SDS011;67098;51.140;4.088;2023-04-03T04:20:37;8.40;;;5.60;;
32216;SDS011;67098;51.140;4.088;2023-04-03T04:23:03;12.70;;;6.78;;
32216;SDS011;67098;51.140;4.088;2023-04-03T04:25:28;11.40;;;6.55;;
32216;SDS011;67098;51.140;4.088;2023-04-03T04:27:54;9.25;;;6.80;;
32216;SDS011;67098;51.140;4.088;2023-04-03T04:30:20;10.13;;;5.88;;
32216;SDS011;67098;51.140;4.088;2023-04-03T04:32:45;11.20;;;6.03;;
32216;SDS011;67098;51.140;4.088;2023-04-03T04:35:11;10.02;;;5.72;;
32216;SDS011;67098;51.140;4.088;2023-04-03T04:37:37;8.05;;;5.43;;
32216;SDS011;67098;51.140;4.088;2023-04-03T04:40:03;9.35;;;5.93;;
32216;SDS011;67098;51.140;4.088;2023-04-03T04:42:28;11.18;;;6.47;;
32216;SDS011;67098;51.140;4.088;2023-04-03T04:44:54;11.63;;;6.22;;
32216;SDS011;67098;51.140;4.088;2023-04-03T04:47:20;12.02;;;5.63;;
32216;SDS011;67098;51.140;4.088;2023-04-03T04:49:45;10.05;;;6.07;;
32216;SDS011;67098;51.140;4.088;2023-04-03T04:52:12;9.20;;;5.70;;
32216;SDS011;67098;51.140;4.088;2023-04-03T04:54:38;10.55;;;6.20;;
32216;SDS011;67098;51.140;4.088;2023-04-03T04:57:04;11.93;;;5.65;;
32216;SDS011;67098;51.140;4.088;2023-04-03T04:59:30;9.55;;;5.97;;
32216;SDS011;67098;51.140;4.088;2023-04-03T05:01:55;12.45;;;5.63;;
32216;SDS011;67098;51.140;4.088;2023-04-03T05:04:21;15.20;;;5.97;;
32216;SDS011;67098;51.140;4.088;2023-04-03T05:06:46;10.70;;;5.95;;
32216;SDS011;67098;51.140;4.088;2023-04-03T05:09:12;11.93;;;5.75;;
32216;SDS011;67098;51.140;4.088;2023-04-03T05:11:38;11.15;;;5.75;;
32216;SDS011;67098;51.140;4.088;2023-04-03T05:14:03;14.70;;;6.00;;
32216;SDS011;67098;51.140;4.088;2023-04-03T05:16:31;16.88;;;6.80;;
32216;SDS011;67098;51.140;4.088;2023-04-03T05:18:57;9.95;;;5.63;;
32216;SDS011;67098;51.140;4.088;2023-04-03T05:21:23;10.80;;;6.03;;
32216;SDS011;67098;51.140;4.088;2023-04-03T05:23:51;13.43;;;6.53;;
32216;SDS011;67098;51.140;4.088;2023-04-03T05:26:17;10.73;;;6.38;;
32216;SDS011;67098;51.140;4.088;2023-04-03T05:28:43;10.73;;;6.57;;
32216;SDS011;67098;51.140;4.088;2023-04-03T05:31:08;11.52;;;6.32;;
32216;SDS011;67098;51.140;4.088;2023-04-03T05:33:34;10.82;;;6.35;;
32216;SDS011;67098;51.140;4.088;2023-04-03T05:36:05;11.18;;;6.70;;
32216;SDS011;67098;51.140;4.088;2023-04-03T05:38:32;13.30;;;7.60;;
32216;SDS011;67098;51.140;4.088;2023-04-03T05:40:58;9.90;;;6.35;;
32216;SDS011;67098;51.140;4.088;2023-04-03T05:43:23;16.40;;;7.30;;
32216;SDS011;67098;51.140;4.088;2023-04-03T05:45:50;10.93;;;6.93;;
32216;SDS011;67098;51.140;4.088;2023-04-03T05:48:16;14.70;;;7.30;;
32216;SDS011;67098;51.140;4.088;2023-04-03T05:50:41;13.60;;;8.18;;
32216;SDS011;67098;51.140;4.088;2023-04-03T05:53:08;12.65;;;7.55;;
32216;SDS011;67098;51.140;4.088;2023-04-03T05:55:43;16.63;;;8.05;;
32216;SDS011;67098;51.140;4.088;2023-04-03T05:58:08;15.60;;;8.25;;
32216;SDS011;67098;51.140;4.088;2023-04-03T06:00:34;13.65;;;7.82;;
32216;SDS011;67098;51.140;4.088;2023-04-03T06:02:59;16.13;;;8.18;;
32216;SDS011;67098;51.140;4.088;2023-04-03T06:05:25;15.85;;;7.47;;
32216;SDS011;67098;51.140;4.088;2023-04-03T06:07:51;12.13;;;7.20;;
32216;SDS011;67098;51.140;4.088;2023-04-03T06:10:16;11.73;;;7.53;;
32216;SDS011;67098;51.140;4.088;2023-04-03T06:12:42;15.90;;;7.57;;
32216;SDS011;67098;51.140;4.088;2023-04-03T06:15:08;11.45;;;7.78;;
32216;SDS011;67098;51.140;4.088;2023-04-03T06:17:36;15.07;;;7.82;;
32216;SDS011;67098;51.140;4.088;2023-04-03T06:20:02;21.20;;;7.97;;
32216;SDS011;67098;51.140;4.088;2023-04-03T06:22:28;14.60;;;7.75;;
32216;SDS011;67098;51.140;4.088;2023-04-03T06:24:55;16.30;;;7.47;;
32216;SDS011;67098;51.140;4.088;2023-04-03T06:27:21;14.98;;;8.38;;
32216;SDS011;67098;51.140;4.088;2023-04-03T06:29:46;13.65;;;7.53;;
32216;SDS011;67098;51.140;4.088;2023-04-03T06:32:13;14.05;;;7.82;;
32216;SDS011;67098;51.140;4.088;2023-04-03T06:34:40;16.88;;;8.75;;
32216;SDS011;67098;51.140;4.088;2023-04-03T06:37:06;16.02;;;8.30;;
32216;SDS011;67098;51.140;4.088;2023-04-03T06:39:35;16.40;;;8.10;;
32216;SDS011;67098;51.140;4.088;2023-04-03T06:42:01;22.20;;;8.63;;
32216;SDS011;67098;51.140;4.088;2023-04-03T06:44:27;15.68;;;8.75;;
32216;SDS011;67098;51.140;4.088;2023-04-03T06:46:52;17.83;;;8.98;;
32216;SDS011;67098;51.140;4.088;2023-04-03T06:49:19;15.35;;;8.52;;
32216;SDS011;67098;51.140;4.088;2023-04-03T06:51:45;19.58;;;8.90;;
32216;SDS011;67098;51.140;4.088;2023-04-03T06:54:10;18.52;;;9.00;;
32216;SDS011;67098;51.140;4.088;2023-04-03T06:56:36;16.55;;;8.82;;
32216;SDS011;67098;51.140;4.088;2023-04-03T06:59:02;19.05;;;9.32;;
32216;SDS011;67098;51.140;4.088;2023-04-03T07:01:28;18.52;;;8.75;;
32216;SDS011;67098;51.140;4.088;2023-04-03T07:03:54;17.42;;;9.07;;
32216;SDS011;67098;51.140;4.088;2023-04-03T07:06:20;17.92;;;8.70;;
32216;SDS011;67098;51.140;4.088;2023-04-03T07:08:47;20.00;;;9.88;;
32216;SDS011;67098;51.140;4.088;2023-04-03T07:11:14;24.58;;;12.82;;
32216;SDS011;67098;51.140;4.088;2023-04-03T07:13:40;21.98;;;10.13;;
32216;SDS011;67098;51.140;4.088;2023-04-03T07:16:06;17.42;;;9.65;;
32216;SDS011;67098;51.140;4.088;2023-04-03T07:18:32;15.65;;;8.07;;
32216;SDS011;67098;51.140;4.088;2023-04-03T07:20:58;16.42;;;8.20;;
32216;SDS011;67098;51.140;4.088;2023-04-03T07:23:24;14.68;;;7.30;;
32216;SDS011;67098;51.140;4.088;2023-04-03T07:25:51;12.82;;;6.38;;
32216;SDS011;67098;51.140;4.088;2023-04-03T07:28:17;11.80;;;6.25;;
32216;SDS011;67098;51.140;4.088;2023-04-03T07:30:45;10.73;;;6.20;;
32216;SDS011;67098;51.140;4.088;2023-04-03T07:33:12;13.05;;;5.53;;
32216;SDS011;67098;51.140;4.088;2023-04-03T07:35:39;9.93;;;5.53;;
32216;SDS011;67098;51.140;4.088;2023-04-03T07:38:05;11.75;;;6.05;;
32216;SDS011;67098;51.140;4.088;2023-04-03T07:40:31;14.50;;;6.25;;
32216;SDS011;67098;51.140;4.088;2023-04-03T07:42:57;14.35;;;6.68;;
32216;SDS011;67098;51.140;4.088;2023-04-03T07:45:23;12.57;;;6.45;;
32216;SDS011;67098;51.140;4.088;2023-04-03T07:47:49;13.00;;;5.20;;
32216;SDS011;67098;51.140;4.088;2023-04-03T07:50:15;10.73;;;5.60;;
32216;SDS011;67098;51.140;4.088;2023-04-03T07:52:41;11.90;;;5.40;;
32216;SDS011;67098;51.140;4.088;2023-04-03T07:55:07;17.23;;;5.28;;
32216;SDS011;67098;51.140;4.088;2023-04-03T07:57:33;10.35;;;5.05;;
32216;SDS011;67098;51.140;4.088;2023-04-03T07:59:59;12.73;;;4.68;;
32216;SDS011;67098;51.140;4.088;2023-04-03T08:02:24;16.25;;;4.90;;
32216;SDS011;67098;51.140;4.088;2023-04-03T08:04:50;12.07;;;4.95;;
32216;SDS011;67098;51.140;4.088;2023-04-03T08:07:16;13.52;;;4.80;;
32216;SDS011;67098;51.140;4.088;2023-04-03T08:09:41;7.78;;;4.43;;
32216;SDS011;67098;51.140;4.088;2023-04-03T08:12:07;13.27;;;4.35;;
32216;SDS011;67098;51.140;4.088;2023-04-03T08:14:33;7.93;;;4.07;;
32216;SDS011;67098;51.140;4.088;2023-04-03T08:17:01;12.43;;;4.97;;
32216;SDS011;67098;51.140;4.088;2023-04-03T08:19:29;11.52;;;5.13;;
32216;SDS011;67098;51.140;4.088;2023-04-03T08:21:55;20.27;;;5.20;;
32216;SDS011;67098;51.140;4.088;2023-04-03T08:24:23;10.68;;;4.90;;
32216;SDS011;67098;51.140;4.088;2023-04-03T08:26:49;10.70;;;5.10;;
32216;SDS011;67098;51.140;4.088;2023-04-03T08:29:15;10.30;;;4.57;;
32216;SDS011;67098;51.140;4.088;2023-04-03T08:31:41;10.60;;;4.75;;
32216;SDS011;67098;51.140;4.088;2023-04-03T08:34:06;12.25;;;5.03;;
32216;SDS011;67098;51.140;4.088;2023-04-03T08:36:33;15.13;;;5.53;;
32216;SDS011;67098;51.140;4.088;2023-04-03T08:38:59;13.00;;;4.93;;
32216;SDS011;67098;51.140;4.088;2023-04-03T08:46:47;10.15;;;4.20;;
32216;SDS011;67098;51.140;4.088;2023-04-03T08:49:35;11.60;;;4.32;;
32216;SDS011;67098;51.140;4.088;2023-04-03T08:52:12;8.52;;;3.53;;
32216;SDS011;67098;51.140;4.088;2023-04-03T08:57:40;9.20;;;4.25;;
32216;SDS011;67098;51.140;4.088;2023-04-03T09:02:50;9.63;;;3.00;;
32216;SDS011;67098;51.140;4.088;2023-04-03T09:05:23;10.73;;;3.45;;
32216;SDS011;67098;51.140;4.088;2023-04-03T09:08:04;6.88;;;3.30;;
32216;SDS011;67098;51.140;4.088;2023-04-03T09:11:14;7.55;;;3.33;;
32216;SDS011;67098;51.140;4.088;2023-04-03T09:16:27;7.97;;;2.85;;
32216;SDS011;67098;51.140;4.088;2023-04-03T09:19:28;6.05;;;2.20;;
32216;SDS011;67098;51.140;4.088;2023-04-03T09:22:14;7.03;;;2.85;;
32216;SDS011;67098;51.140;4.088;2023-04-03T09:24:47;10.52;;;2.20;;
32216;SDS011;67098;51.140;4.088;2023-04-03T09:27:21;8.38;;;2.83;;
32216;SDS011;67098;51.140;4.088;2023-04-03T09:29:46;8.98;;;2.78;;
32216;SDS011;67098;51.140;4.088;2023-04-03T09:34:50;9.75;;;2.80;;
32216;SDS011;67098;51.140;4.088;2023-04-03T09:37:32;5.57;;;2.00;;
32216;SDS011;67098;51.140;4.088;2023-04-03T09:40:28;4.65;;;1.80;;
32216;SDS011;67098;51.140;4.088;2023-04-03T09:43:02;4.88;;;1.95;;
32216;SDS011;67098;51.140;4.088;2023-04-03T09:45:49;4.78;;;1.98;;
32216;SDS011;67098;51.140;4.088;2023-04-03T09:48:33;7.05;;;1.55;;
32216;SDS011;67098;51.140;4.088;2023-04-03T09:51:02;4.93;;;2.00;;
32216;SDS011;67098;51.140;4.088;2023-04-03T09:53:46;5.70;;;1.70;;
32216;SDS011;67098;51.140;4.088;2023-04-03T09:59:07;5.47;;;2.58;;
32216;SDS011;67098;51.140;4.088;2023-04-03T10:01:41;5.50;;;1.67;;
32216;SDS011;67098;51.140;4.088;2023-04-03T10:04:09;4.82;;;1.75;;
32216;SDS011;67098;51.140;4.088;2023-04-03T10:06:44;4.15;;;1.80;;
32216;SDS011;67098;51.140;4.088;2023-04-03T10:11:57;7.13;;;2.03;;
32216;SDS011;67098;51.140;4.088;2023-04-03T10:14:24;5.40;;;1.70;;
32216;SDS011;67098;51.140;4.088;2023-04-03T10:19:47;3.88;;;1.73;;
32216;SDS011;67098;51.140;4.088;2023-04-03T10:27:58;5.50;;;1.92;;
32216;SDS011;67098;51.140;4.088;2023-04-03T10:30:29;6.95;;;2.17;;
32216;SDS011;67098;51.140;4.088;2023-04-03T10:35:56;3.97;;;1.53;;
32216;SDS011;67098;51.140;4.088;2023-04-03T10:38:43;4.45;;;1.45;;
32216;SDS011;67098;51.140;4.088;2023-04-03T10:41:29;7.45;;;1.83;;
32216;SDS011;67098;51.140;4.088;2023-04-03T10:47:18;4.05;;;1.55;;
32216;SDS011;67098;51.140;4.088;2023-04-03T10:58:35;3.85;;;1.50;;
32216;SDS011;67098;51.140;4.088;2023-04-03T11:01:14;5.20;;;1.50;;
32216;SDS011;67098;51.140;4.088;2023-04-03T11:03:53;5.10;;;1.90;;
32216;SDS011;67098;51.140;4.088;2023-04-03T11:06:22;6.63;;;2.45;;
32216;SDS011;67098;51.140;4.088;2023-04-03T11:09:03;3.10;;;1.45;;
32216;SDS011;67098;51.140;4.088;2023-04-03T11:11:34;8.68;;;1.80;;
32216;SDS011;67098;51.140;4.088;2023-04-03T11:14:14;5.10;;;1.30;;
32216;SDS011;67098;51.140;4.088;2023-04-03T11:16:52;6.78;;;1.90;;
32216;SDS011;67098;51.140;4.088;2023-04-03T11:19:50;6.78;;;1.75;;
32216;SDS011;67098;51.140;4.088;2023-04-03T11:27:44;5.97;;;2.05;;
32216;SDS011;67098;51.140;4.088;2023-04-03T11:30:20;6.30;;;1.80;;
32216;SDS011;67098;51.140;4.088;2023-04-03T11:33:00;3.70;;;1.42;;
32216;SDS011;67098;51.140;4.088;2023-04-03T11:35:33;3.60;;;1.48;;
32216;SDS011;67098;51.140;4.088;2023-04-03T11:38:00;4.05;;;1.83;;
32216;SDS011;67098;51.140;4.088;2023-04-03T11:40:31;7.22;;;1.30;;
32216;SDS011;67098;51.140;4.088;2023-04-03T11:50:45;4.70;;;1.73;;
32216;SDS011;67098;51.140;4.088;2023-04-03T11:59:19;2.38;;;1.23;;
32216;SDS011;67098;51.140;4.088;2023-04-03T12:01:47;5.07;;;1.55;;
32216;SDS011;67098;51.140;4.088;2023-04-03T12:04:17;3.85;;;1.83;;
32216;SDS011;67098;51.140;4.088;2023-04-03T12:12:32;5.35;;;1.60;;
32216;SDS011;67098;51.140;4.088;2023-04-03T12:16:03;3.75;;;1.50;;
32216;SDS011;67098;51.140;4.088;2023-04-03T12:21:04;1.95;;;1.20;;
32216;SDS011;67098;51.140;4.088;2023-04-03T12:23:34;4.25;;;1.65;;
32216;SDS011;67098;51.140;4.088;2023-04-03T12:26:18;3.67;;;1.08;;
32216;SDS011;67098;51.140;4.088;2023-04-03T12:28:46;7.57;;;1.48;;
32216;SDS011;67098;51.140;4.088;2023-04-03T12:31:15;3.25;;;1.10;;
32216;SDS011;67098;51.140;4.088;2023-04-03T12:34:43;2.63;;;1.20;;
32216;SDS011;67098;51.140;4.088;2023-04-03T12:36:54;4.03;;;1.42;;
32216;SDS011;67098;51.140;4.088;2023-04-03T12:39:43;3.97;;;1.10;;
32216;SDS011;67098;51.140;4.088;2023-04-03T12:45:20;1.73;;;0.90;;
32216;SDS011;67098;51.140;4.088;2023-04-03T12:47:53;4.25;;;0.90;;
32216;SDS011;67098;51.140;4.088;2023-04-03T12:55:31;2.22;;;0.90;;
32216;SDS011;67098;51.140;4.088;2023-04-03T12:57:57;3.78;;;0.90;;
32216;SDS011;67098;51.140;4.088;2023-04-03T13:00:37;2.80;;;1.05;;
32216;SDS011;67098;51.140;4.088;2023-04-03T13:03:04;5.20;;;0.95;;
32216;SDS011;67098;51.140;4.088;2023-04-03T13:05:31;3.40;;;1.05;;
32216;SDS011;67098;51.140;4.088;2023-04-03T13:08:05;4.20;;;1.00;;
32216;SDS011;67098;51.140;4.088;2023-04-03T13:10:47;4.28;;;1.00;;
32216;SDS011;67098;51.140;4.088;2023-04-03T13:13:19;2.55;;;1.20;;
32216;SDS011;67098;51.140;4.088;2023-04-03T13:15:46;3.58;;;1.08;;
32216;SDS011;67098;51.140;4.088;2023-04-03T13:18:24;4.60;;;1.10;;
32216;SDS011;67098;51.140;4.088;2023-04-03T13:20:59;3.53;;;1.00;;
32216;SDS011;67098;51.140;4.088;2023-04-03T13:23:46;3.35;;;1.23;;
32216;SDS011;67098;51.140;4.088;2023-04-03T13:26:15;2.60;;;0.90;;
32216;SDS011;67098;51.140;4.088;2023-04-03T13:28:44;2.50;;;1.10;;
32216;SDS011;67098;51.140;4.088;2023-04-03T13:33:39;3.90;;;1.50;;
32216;SDS011;67098;51.140;4.088;2023-04-03T13:36:19;5.97;;;1.40;;
32216;SDS011;67098;51.140;4.088;2023-04-03T13:38:57;3.13;;;1.00;;
32216;SDS011;67098;51.140;4.088;2023-04-03T13:44:14;3.05;;;1.20;;
32216;SDS011;67098;51.140;4.088;2023-04-03T13:46:42;2.03;;;1.10;;
32216;SDS011;67098;51.140;4.088;2023-04-03T13:49:21;1.92;;;1.10;;
32216;SDS011;67098;51.140;4.088;2023-04-03T13:51:53;2.95;;;1.17;;
32216;SDS011;67098;51.140;4.088;2023-04-03T13:54:21;6.07;;;1.20;;
32216;SDS011;67098;51.140;4.088;2023-04-03T13:57:00;4.32;;;1.30;;
32216;SDS011;67098;51.140;4.088;2023-04-03T13:59:33;4.47;;;1.30;;
32216;SDS011;67098;51.140;4.088;2023-04-03T14:04:30;3.10;;;1.42;;
32216;SDS011;67098;51.140;4.088;2023-04-03T14:06:57;3.42;;;1.38;;
32216;SDS011;67098;51.140;4.088;2023-04-03T14:09:24;3.30;;;1.00;;
32216;SDS011;67098;51.140;4.088;2023-04-03T14:12:02;3.38;;;1.10;;
32216;SDS011;67098;51.140;4.088;2023-04-03T14:14:33;3.55;;;1.27;;
32216;SDS011;67098;51.140;4.088;2023-04-03T14:17:02;7.25;;;1.40;;
32216;SDS011;67098;51.140;4.088;2023-04-03T14:19:35;3.88;;;1.50;;
32216;SDS011;67098;51.140;4.088;2023-04-03T14:22:07;1.60;;;0.90;;
32216;SDS011;67098;51.140;4.088;2023-04-03T14:24:41;3.22;;;1.40;;
32216;SDS011;67098;51.140;4.088;2023-04-03T14:27:16;2.10;;;1.13;;
32216;SDS011;67098;51.140;4.088;2023-04-03T14:29:59;2.35;;;1.08;;
32216;SDS011;67098;51.140;4.088;2023-04-03T14:32:25;10.40;;;2.15;;
32216;SDS011;67098;51.140;4.088;2023-04-03T14:34:52;4.90;;;1.48;;
32216;SDS011;67098;51.140;4.088;2023-04-03T14:37:20;2.35;;;1.10;;
32216;SDS011;67098;51.140;4.088;2023-04-03T14:39:49;4.78;;;1.10;;
32216;SDS011;67098;51.140;4.088;2023-04-03T14:42:22;2.13;;;1.00;;
32216;SDS011;67098;51.140;4.088;2023-04-03T14:44:50;2.13;;;1.13;;
32216;SDS011;67098;51.140;4.088;2023-04-03T14:47:17;2.55;;;1.13;;
32216;SDS011;67098;51.140;4.088;2023-04-03T14:49:46;2.10;;;1.00;;
32216;SDS011;67098;51.140;4.088;2023-04-03T14:52:17;3.20;;;1.15;;
32216;SDS011;67098;51.140;4.088;2023-04-03T14:54:49;3.15;;;1.00;;
32216;SDS011;67098;51.140;4.088;2023-04-03T14:57:16;6.03;;;1.20;;
32216;SDS011;67098;51.140;4.088;2023-04-03T14:59:43;2.35;;;1.00;;
32216;SDS011;67098;51.140;4.088;2023-04-03T15:02:32;5.07;;;1.25;;
32216;SDS011;67098;51.140;4.088;2023-04-03T15:05:00;4.72;;;1.17;;
32216;SDS011;67098;51.140;4.088;2023-04-03T15:07:29;5.22;;;1.17;;
32216;SDS011;67098;51.140;4.088;2023-04-03T15:10:00;2.42;;;0.88;;
32216;SDS011;67098;51.140;4.088;2023-04-03T15:12:31;4.45;;;1.33;;
32216;SDS011;67098;51.140;4.088;2023-04-03T15:14:57;3.90;;;1.10;;
32216;SDS011;67098;51.140;4.088;2023-04-03T15:17:22;3.53;;;1.23;;
32216;SDS011;67098;51.140;4.088;2023-04-03T15:19:48;4.05;;;1.00;;
32216;SDS011;67098;51.140;4.088;2023-04-03T15:22:15;3.33;;;1.35;;
32216;SDS011;67098;51.140;4.088;2023-04-03T15:24:43;4.45;;;1.10;;
32216;SDS011;67098;51.140;4.088;2023-04-03T15:27:09;1.58;;;0.80;;
32216;SDS011;67098;51.140;4.088;2023-04-03T15:29:36;3.30;;;1.25;;
32216;SDS011;67098;51.140;4.088;2023-04-03T15:32:03;5.68;;;1.15;;
32216;SDS011;67098;51.140;4.088;2023-04-03T15:34:28;4.70;;;1.45;;
32216;SDS011;67098;51.140;4.088;2023-04-03T15:36:54;4.55;;;1.55;;
32216;SDS011;67098;51.140;4.088;2023-04-03T15:39:20;2.47;;;1.10;;
32216;SDS011;67098;51.140;4.088;2023-04-03T15:41:46;2.22;;;1.08;;
32216;SDS011;67098;51.140;4.088;2023-04-03T15:44:12;2.63;;;1.20;;
32216;SDS011;67098;51.140;4.088;2023-04-03T15:46:38;3.08;;;1.25;;
32216;SDS011;67098;51.140;4.088;2023-04-03T15:49:04;3.40;;;1.20;;
32216;SDS011;67098;51.140;4.088;2023-04-03T15:51:30;2.33;;;1.08;;
32216;SDS011;67098;51.140;4.088;2023-04-03T15:53:56;2.83;;;1.10;;
32216;SDS011;67098;51.140;4.088;2023-04-03T15:56:22;2.47;;;1.10;;
32216;SDS011;67098;51.140;4.088;2023-04-03T15:58:48;2.80;;;1.30;;
32216;SDS011;67098;51.140;4.088;2023-04-03T16:01:13;3.33;;;1.40;;
32216;SDS011;67098;51.140;4.088;2023-04-03T16:03:40;3.13;;;1.25;;
32216;SDS011;67098;51.140;4.088;2023-04-03T16:06:10;5.60;;;1.30;;
32216;SDS011;67098;51.140;4.088;2023-04-03T16:08:37;3.15;;;1.27;;
32216;SDS011;67098;51.140;4.088;2023-04-03T16:11:03;8.05;;;1.45;;
32216;SDS011;67098;51.140;4.088;2023-04-03T16:13:29;4.15;;;1.30;;
32216;SDS011;67098;51.140;4.088;2023-04-03T16:15:55;2.35;;;1.13;;
32216;SDS011;67098;51.140;4.088;2023-04-03T16:18:21;7.22;;;1.17;;
32216;SDS011;67098;51.140;4.088;2023-04-03T16:20:47;2.75;;;1.40;;
32216;SDS011;67098;51.140;4.088;2023-04-03T16:23:13;2.90;;;0.98;;
32216;SDS011;67098;51.140;4.088;2023-04-03T16:25:38;2.55;;;1.10;;
32216;SDS011;67098;51.140;4.088;2023-04-03T16:28:04;6.97;;;1.38;;
32216;SDS011;67098;51.140;4.088;2023-04-03T16:30:30;5.78;;;1.58;;